sensor_id;sensor_type;location;lat;lon;timestamp;P1;durP1;ratioP1;P2;durP2;ratioP2
66567;SDS011;53422;49.296;6.900;2024-03-23T00:53:44;15.95;;;7.55;;
66567;SDS011;53422;49.296;6.900;2024-03-23T00:56:10;17.63;;;7.38;;
66567;SDS011;53422;49.296;6.900;2024-03-23T00:58:35;23.70;;;8.35;;
66567;SDS011;53422;49.296;6.900;2024-03-23T01:01:01;19.40;;;8.32;;
66567;SDS011;53422;49.296;6.900;2024-03-23T01:03:28;19.42;;;8.05;;
66567;SDS011;53422;49.296;6.900;2024-03-23T01:05:58;15.65;;;7.55;;
66567;SDS011;53422;49.296;6.900;2024-03-23T01:08:24;20.10;;;7.45;;
66567;SDS011;53422;49.296;6.900;2024-03-23T01:10:54;19.15;;;7.65;;
66567;SDS011;53422;49.296;6.900;2024-03-23T01:13:23;18.75;;;7.80;;
66567;SDS011;53422;49.296;6.900;2024-03-23T01:15:51;20.10;;;6.85;;
66567;SDS011;53422;49.296;6.900;2024-03-23T01:18:18;19.42;;;7.65;;
66567;SDS011;53422;49.296;6.900;2024-03-23T01:20:44;14.02;;;6.28;;
66567;SDS011;53422;49.296;6.900;2024-03-23T01:23:10;17.30;;;7.45;;
66567;SDS011;53422;49.296;6.900;2024-03-23T01:25:36;19.48;;;7.85;;
66567;SDS011;53422;49.296;6.900;2024-03-23T01:28:02;17.27;;;7.00;;
66567;SDS011;53422;49.296;6.900;2024-03-23T01:30:27;18.45;;;7.50;;
66567;SDS011;53422;49.296;6.900;2024-03-23T01:32:53;20.00;;;7.78;;
66567;SDS011;53422;49.296;6.900;2024-03-23T01:35:19;15.95;;;6.53;;
66567;SDS011;53422;49.296;6.900;2024-03-23T01:37:45;21.73;;;7.97;;
66567;SDS011;53422;49.296;6.900;2024-03-23T01:40:10;18.80;;;7.75;;
66567;SDS011;53422;49.296;6.900;2024-03-23T01:42:38;21.25;;;7.80;;
66567;SDS011;53422;49.296;6.900;2024-03-23T01:45:07;18.10;;;7.25;;
66567;SDS011;53422;49.296;6.900;2024-03-23T01:47:34;19.75;;;7.22;;
66567;SDS011;53422;49.296;6.900;2024-03-23T01:50:00;20.17;;;7.80;;
66567;SDS011;53422;49.296;6.900;2024-03-23T01:52:26;20.33;;;7.80;;
66567;SDS011;53422;49.296;6.900;2024-03-23T01:54:52;18.70;;;6.82;;
66567;SDS011;53422;49.296;6.900;2024-03-23T01:57:18;20.85;;;7.40;;
66567;SDS011;53422;49.296;6.900;2024-03-23T01:59:46;18.27;;;6.60;;
66567;SDS011;53422;49.296;6.900;2024-03-23T02:02:13;20.27;;;6.88;;
66567;SDS011;53422;49.296;6.900;2024-03-23T02:04:38;20.40;;;7.30;;
66567;SDS011;53422;49.296;6.900;2024-03-23T02:07:06;19.45;;;7.18;;
66567;SDS011;53422;49.296;6.900;2024-03-23T02:11:58;16.95;;;6.75;;
66567;SDS011;53422;49.296;6.900;2024-03-23T02:14:24;15.48;;;6.00;;
66567;SDS011;53422;49.296;6.900;2024-03-23T02:16:49;18.77;;;6.68;;
66567;SDS011;53422;49.296;6.900;2024-03-23T02:19:15;12.38;;;5.35;;
66567;SDS011;53422;49.296;6.900;2024-03-23T02:21:44;12.55;;;4.65;;
66567;SDS011;53422;49.296;6.900;2024-03-23T02:24:09;11.05;;;5.03;;
66567;SDS011;53422;49.296;6.900;2024-03-23T02:26:35;17.98;;;6.45;;
66567;SDS011;53422;49.296;6.900;2024-03-23T02:29:00;13.48;;;6.15;;
66567;SDS011;53422;49.296;6.900;2024-03-23T02:31:26;17.98;;;5.72;;
66567;SDS011;53422;49.296;6.900;2024-03-23T02:33:52;15.38;;;5.65;;
66567;SDS011;53422;49.296;6.900;2024-03-23T02:36:18;15.93;;;5.63;;
66567;SDS011;53422;49.296;6.900;2024-03-23T02:38:46;15.88;;;5.47;;
66567;SDS011;53422;49.296;6.900;2024-03-23T02:41:12;14.18;;;5.28;;
66567;SDS011;53422;49.296;6.900;2024-03-23T02:43:37;9.00;;;4.10;;
66567;SDS011;53422;49.296;6.900;2024-03-23T02:46:03;10.00;;;4.13;;
66567;SDS011;53422;49.296;6.900;2024-03-23T02:48:29;12.57;;;5.28;;
66567;SDS011;53422;49.296;6.900;2024-03-23T02:50:54;10.65;;;4.50;;
66567;SDS011;53422;49.296;6.900;2024-03-23T02:53:20;7.93;;;3.90;;
66567;SDS011;53422;49.296;6.900;2024-03-23T02:55:46;7.78;;;3.95;;
66567;SDS011;53422;49.296;6.900;2024-03-23T02:58:11;8.20;;;3.25;;
66567;SDS011;53422;49.296;6.900;2024-03-23T03:00:37;5.57;;;2.63;;
66567;SDS011;53422;49.296;6.900;2024-03-23T03:03:03;7.05;;;2.88;;
66567;SDS011;53422;49.296;6.900;2024-03-23T03:05:28;6.45;;;2.45;;
66567;SDS011;53422;49.296;6.900;2024-03-23T03:07:54;5.65;;;2.60;;
66567;SDS011;53422;49.296;6.900;2024-03-23T03:10:20;3.05;;;1.40;;
66567;SDS011;53422;49.296;6.900;2024-03-23T03:12:45;5.60;;;2.00;;
66567;SDS011;53422;49.296;6.900;2024-03-23T03:15:11;3.97;;;1.52;;
66567;SDS011;53422;49.296;6.900;2024-03-23T03:17:37;3.05;;;1.60;;
66567;SDS011;53422;49.296;6.900;2024-03-23T03:20:03;3.75;;;1.63;;
66567;SDS011;53422;49.296;6.900;2024-03-23T03:22:29;1.95;;;0.98;;
66567;SDS011;53422;49.296;6.900;2024-03-23T03:24:55;3.20;;;1.23;;
66567;SDS011;53422;49.296;6.900;2024-03-23T03:27:21;2.60;;;1.20;;
66567;SDS011;53422;49.296;6.900;2024-03-23T03:29:48;1.83;;;1.00;;
66567;SDS011;53422;49.296;6.900;2024-03-23T03:32:13;2.00;;;1.13;;
66567;SDS011;53422;49.296;6.900;2024-03-23T03:34:39;3.08;;;1.40;;
66567;SDS011;53422;49.296;6.900;2024-03-23T03:37:05;0.70;;;0.70;;
66567;SDS011;53422;49.296;6.900;2024-03-23T03:39:30;1.70;;;0.70;;
66567;SDS011;53422;49.296;6.900;2024-03-23T03:41:56;1.85;;;1.00;;
66567;SDS011;53422;49.296;6.900;2024-03-23T03:44:21;5.70;;;1.05;;
66567;SDS011;53422;49.296;6.900;2024-03-23T03:46:47;1.00;;;0.65;;
66567;SDS011;53422;49.296;6.900;2024-03-23T03:49:13;1.65;;;0.80;;
66567;SDS011;53422;49.296;6.900;2024-03-23T03:51:38;1.20;;;0.60;;
66567;SDS011;53422;49.296;6.900;2024-03-23T03:54:04;1.23;;;0.60;;
66567;SDS011;53422;49.296;6.900;2024-03-23T03:56:30;0.60;;;0.40;;
66567;SDS011;53422;49.296;6.900;2024-03-23T03:58:55;0.88;;;0.57;;
66567;SDS011;53422;49.296;6.900;2024-03-23T04:01:21;1.70;;;0.68;;
66567;SDS011;53422;49.296;6.900;2024-03-23T04:03:46;0.73;;;0.50;;
66567;SDS011;53422;49.296;6.900;2024-03-23T04:06:18;1.15;;;0.40;;
66567;SDS011;53422;49.296;6.900;2024-03-23T04:08:44;0.95;;;0.40;;
66567;SDS011;53422;49.296;6.900;2024-03-23T04:11:09;0.68;;;0.40;;
66567;SDS011;53422;49.296;6.900;2024-03-23T04:13:35;1.00;;;0.47;;
66567;SDS011;53422;49.296;6.900;2024-03-23T04:16:01;0.63;;;0.35;;
66567;SDS011;53422;49.296;6.900;2024-03-23T04:18:27;0.50;;;0.30;;
66567;SDS011;53422;49.296;6.900;2024-03-23T04:20:52;0.50;;;0.30;;
66567;SDS011;53422;49.296;6.900;2024-03-23T04:23:18;0.82;;;0.40;;
66567;SDS011;53422;49.296;6.900;2024-03-23T04:25:44;1.77;;;0.40;;
66567;SDS011;53422;49.296;6.900;2024-03-23T04:28:09;0.50;;;0.40;;
66567;SDS011;53422;49.296;6.900;2024-03-23T04:30:35;0.50;;;0.50;;
66567;SDS011;53422;49.296;6.900;2024-03-23T04:33:01;1.15;;;0.63;;
66567;SDS011;53422;49.296;6.900;2024-03-23T04:35:27;0.75;;;0.32;;
66567;SDS011;53422;49.296;6.900;2024-03-23T04:37:53;0.80;;;0.45;;
66567;SDS011;53422;49.296;6.900;2024-03-23T04:40:20;1.10;;;0.70;;
66567;SDS011;53422;49.296;6.900;2024-03-23T04:42:46;1.23;;;0.70;;
66567;SDS011;53422;49.296;6.900;2024-03-23T04:45:12;0.93;;;0.40;;
66567;SDS011;53422;49.296;6.900;2024-03-23T04:47:38;0.93;;;0.47;;
66567;SDS011;53422;49.296;6.900;2024-03-23T04:50:04;0.57;;;0.40;;
66567;SDS011;53422;49.296;6.900;2024-03-23T04:52:30;1.10;;;0.40;;
66567;SDS011;53422;49.296;6.900;2024-03-23T04:54:56;1.58;;;0.55;;
66567;SDS011;53422;49.296;6.900;2024-03-23T04:57:21;0.93;;;0.50;;
66567;SDS011;53422;49.296;6.900;2024-03-23T04:59:47;0.93;;;0.57;;
66567;SDS011;53422;49.296;6.900;2024-03-23T05:02:13;3.08;;;0.47;;
66567;SDS011;53422;49.296;6.900;2024-03-23T05:04:40;1.17;;;0.60;;
66567;SDS011;53422;49.296;6.900;2024-03-23T05:07:05;0.63;;;0.40;;
66567;SDS011;53422;49.296;6.900;2024-03-23T05:09:31;0.77;;;0.55;;
66567;SDS011;53422;49.296;6.900;2024-03-23T05:11:58;1.40;;;0.63;;
66567;SDS011;53422;49.296;6.900;2024-03-23T05:14:25;0.77;;;0.50;;
66567;SDS011;53422;49.296;6.900;2024-03-23T05:16:51;0.40;;;0.30;;
66567;SDS011;53422;49.296;6.900;2024-03-23T05:19:17;1.20;;;0.90;;
66567;SDS011;53422;49.296;6.900;2024-03-23T05:21:43;3.95;;;0.80;;
66567;SDS011;53422;49.296;6.900;2024-03-23T05:24:09;1.05;;;0.55;;
66567;SDS011;53422;49.296;6.900;2024-03-23T05:26:34;2.05;;;1.17;;
66567;SDS011;53422;49.296;6.900;2024-03-23T05:29:01;1.95;;;0.82;;
66567;SDS011;53422;49.296;6.900;2024-03-23T05:31:28;1.83;;;1.00;;
66567;SDS011;53422;49.296;6.900;2024-03-23T05:33:55;3.33;;;1.58;;
66567;SDS011;53422;49.296;6.900;2024-03-23T05:36:21;4.28;;;1.90;;
66567;SDS011;53422;49.296;6.900;2024-03-23T05:38:46;4.38;;;1.33;;
66567;SDS011;53422;49.296;6.900;2024-03-23T05:41:13;3.60;;;1.65;;
66567;SDS011;53422;49.296;6.900;2024-03-23T05:43:38;2.75;;;1.48;;
66567;SDS011;53422;49.296;6.900;2024-03-23T05:46:04;2.78;;;1.30;;
66567;SDS011;53422;49.296;6.900;2024-03-23T05:48:30;2.30;;;0.93;;
66567;SDS011;53422;49.296;6.900;2024-03-23T05:50:56;3.58;;;1.70;;
66567;SDS011;53422;49.296;6.900;2024-03-23T05:53:23;5.80;;;1.40;;
66567;SDS011;53422;49.296;6.900;2024-03-23T05:55:49;4.63;;;1.42;;
66567;SDS011;53422;49.296;6.900;2024-03-23T05:58:16;3.72;;;1.38;;
66567;SDS011;53422;49.296;6.900;2024-03-23T06:00:43;2.42;;;1.15;;
66567;SDS011;53422;49.296;6.900;2024-03-23T06:03:09;3.55;;;1.25;;
66567;SDS011;53422;49.296;6.900;2024-03-23T06:05:36;3.80;;;1.30;;
66567;SDS011;53422;49.296;6.900;2024-03-23T06:08:02;4.55;;;1.00;;
66567;SDS011;53422;49.296;6.900;2024-03-23T06:10:28;5.22;;;1.15;;
66567;SDS011;53422;49.296;6.900;2024-03-23T06:12:54;2.45;;;1.13;;
66567;SDS011;53422;49.296;6.900;2024-03-23T06:15:19;4.43;;;1.27;;
66567;SDS011;53422;49.296;6.900;2024-03-23T06:17:45;3.80;;;1.42;;
66567;SDS011;53422;49.296;6.900;2024-03-23T06:20:12;8.48;;;1.27;;
66567;SDS011;53422;49.296;6.900;2024-03-23T06:22:38;3.42;;;1.23;;
66567;SDS011;53422;49.296;6.900;2024-03-23T06:25:03;4.95;;;1.20;;
66567;SDS011;53422;49.296;6.900;2024-03-23T06:27:29;3.40;;;1.02;;
66567;SDS011;53422;49.296;6.900;2024-03-23T06:29:57;4.60;;;1.10;;
66567;SDS011;53422;49.296;6.900;2024-03-23T06:32:23;1.83;;;0.75;;
66567;SDS011;53422;49.296;6.900;2024-03-23T06:34:48;4.57;;;0.93;;
66567;SDS011;53422;49.296;6.900;2024-03-23T06:37:14;2.88;;;1.60;;
66567;SDS011;53422;49.296;6.900;2024-03-23T06:39:39;3.80;;;1.52;;
66567;SDS011;53422;49.296;6.900;2024-03-23T06:42:05;6.25;;;1.88;;
66567;SDS011;53422;49.296;6.900;2024-03-23T06:44:31;6.05;;;1.75;;
66567;SDS011;53422;49.296;6.900;2024-03-23T06:46:57;2.38;;;0.90;;
66567;SDS011;53422;49.296;6.900;2024-03-23T06:49:23;4.82;;;1.65;;
66567;SDS011;53422;49.296;6.900;2024-03-23T06:51:49;6.55;;;1.85;;
66567;SDS011;53422;49.296;6.900;2024-03-23T06:54:15;5.28;;;2.15;;
66567;SDS011;53422;49.296;6.900;2024-03-23T06:56:44;6.38;;;1.50;;
66567;SDS011;53422;49.296;6.900;2024-03-23T06:59:09;3.92;;;1.52;;
66567;SDS011;53422;49.296;6.900;2024-03-23T07:01:36;5.68;;;2.20;;
66567;SDS011;53422;49.296;6.900;2024-03-23T07:04:02;5.78;;;2.00;;
66567;SDS011;53422;49.296;6.900;2024-03-23T07:06:29;5.80;;;1.90;;
66567;SDS011;53422;49.296;6.900;2024-03-23T07:08:55;5.00;;;2.40;;
66567;SDS011;53422;49.296;6.900;2024-03-23T07:11:21;9.60;;;2.60;;
66567;SDS011;53422;49.296;6.900;2024-03-23T07:13:51;6.43;;;2.58;;
66567;SDS011;53422;49.296;6.900;2024-03-23T07:16:19;4.68;;;1.80;;
66567;SDS011;53422;49.296;6.900;2024-03-23T07:18:45;7.13;;;2.28;;
66567;SDS011;53422;49.296;6.900;2024-03-23T07:21:11;7.28;;;2.00;;
66567;SDS011;53422;49.296;6.900;2024-03-23T07:23:37;7.93;;;2.17;;
66567;SDS011;53422;49.296;6.900;2024-03-23T07:26:03;5.50;;;1.98;;
66567;SDS011;53422;49.296;6.900;2024-03-23T07:28:30;5.88;;;2.22;;
66567;SDS011;53422;49.296;6.900;2024-03-23T07:31:10;5.20;;;2.38;;
66567;SDS011;53422;49.296;6.900;2024-03-23T07:33:42;4.80;;;1.90;;
66567;SDS011;53422;49.296;6.900;2024-03-23T07:36:11;5.65;;;2.42;;
66567;SDS011;53422;49.296;6.900;2024-03-23T07:38:40;8.10;;;2.75;;
66567;SDS011;53422;49.296;6.900;2024-03-23T07:41:10;7.40;;;2.70;;
66567;SDS011;53422;49.296;6.900;2024-03-23T07:43:37;8.77;;;2.88;;
66567;SDS011;53422;49.296;6.900;2024-03-23T07:46:04;8.70;;;2.20;;
66567;SDS011;53422;49.296;6.900;2024-03-23T07:48:30;8.60;;;2.30;;
66567;SDS011;53422;49.296;6.900;2024-03-23T07:51:03;7.45;;;2.40;;
66567;SDS011;53422;49.296;6.900;2024-03-23T07:53:32;8.82;;;2.20;;
66567;SDS011;53422;49.296;6.900;2024-03-23T07:55:59;5.05;;;1.60;;
66567;SDS011;53422;49.296;6.900;2024-03-23T07:58:26;6.80;;;2.63;;
66567;SDS011;53422;49.296;6.900;2024-03-23T08:00:55;2.50;;;0.88;;
66567;SDS011;53422;49.296;6.900;2024-03-23T08:03:22;6.47;;;1.77;;
66567;SDS011;53422;49.296;6.900;2024-03-23T08:05:48;3.05;;;1.40;;
66567;SDS011;53422;49.296;6.900;2024-03-23T08:08:13;3.13;;;1.30;;
66567;SDS011;53422;49.296;6.900;2024-03-23T08:10:49;3.72;;;1.30;;
66567;SDS011;53422;49.296;6.900;2024-03-23T08:13:15;3.45;;;1.15;;
66567;SDS011;53422;49.296;6.900;2024-03-23T08:15:41;2.40;;;1.50;;
66567;SDS011;53422;49.296;6.900;2024-03-23T08:18:07;2.33;;;0.90;;
66567;SDS011;53422;49.296;6.900;2024-03-23T08:20:33;2.40;;;0.80;;
66567;SDS011;53422;49.296;6.900;2024-03-23T08:22:58;5.43;;;1.40;;
66567;SDS011;53422;49.296;6.900;2024-03-23T08:25:24;4.97;;;1.30;;
66567;SDS011;53422;49.296;6.900;2024-03-23T08:27:50;2.88;;;1.25;;
66567;SDS011;53422;49.296;6.900;2024-03-23T08:30:16;6.13;;;1.30;;
66567;SDS011;53422;49.296;6.900;2024-03-23T08:32:42;3.67;;;1.27;;
66567;SDS011;53422;49.296;6.900;2024-03-23T08:35:07;4.18;;;1.23;;
66567;SDS011;53422;49.296;6.900;2024-03-23T08:37:33;3.70;;;1.30;;
66567;SDS011;53422;49.296;6.900;2024-03-23T08:39:59;2.30;;;1.00;;
66567;SDS011;53422;49.296;6.900;2024-03-23T08:42:24;3.53;;;1.27;;
66567;SDS011;53422;49.296;6.900;2024-03-23T08:44:50;2.42;;;1.02;;
66567;SDS011;53422;49.296;6.900;2024-03-23T08:47:16;4.35;;;1.20;;
66567;SDS011;53422;49.296;6.900;2024-03-23T08:49:41;3.72;;;1.40;;
66567;SDS011;53422;49.296;6.900;2024-03-23T08:52:08;3.15;;;1.73;;
66567;SDS011;53422;49.296;6.900;2024-03-23T08:54:33;4.18;;;1.90;;
66567;SDS011;53422;49.296;6.900;2024-03-23T08:56:59;6.15;;;1.45;;
66567;SDS011;53422;49.296;6.900;2024-03-23T08:59:25;2.50;;;1.10;;
66567;SDS011;53422;49.296;6.900;2024-03-23T09:01:51;3.05;;;1.30;;
66567;SDS011;53422;49.296;6.900;2024-03-23T09:04:17;5.57;;;1.25;;
66567;SDS011;53422;49.296;6.900;2024-03-23T09:06:43;4.43;;;1.70;;
66567;SDS011;53422;49.296;6.900;2024-03-23T09:09:08;4.30;;;1.60;;
66567;SDS011;53422;49.296;6.900;2024-03-23T09:11:34;4.80;;;1.50;;
66567;SDS011;53422;49.296;6.900;2024-03-23T09:14:00;3.58;;;1.35;;
66567;SDS011;53422;49.296;6.900;2024-03-23T09:16:26;6.40;;;1.83;;
66567;SDS011;53422;49.296;6.900;2024-03-23T09:18:51;4.85;;;1.83;;
66567;SDS011;53422;49.296;6.900;2024-03-23T09:21:17;6.63;;;1.73;;
66567;SDS011;53422;49.296;6.900;2024-03-23T09:23:44;6.78;;;2.03;;
66567;SDS011;53422;49.296;6.900;2024-03-23T09:26:10;3.78;;;1.15;;
66567;SDS011;53422;49.296;6.900;2024-03-23T09:28:35;5.38;;;1.42;;
66567;SDS011;53422;49.296;6.900;2024-03-23T09:31:02;4.80;;;1.80;;
66567;SDS011;53422;49.296;6.900;2024-03-23T09:33:32;8.80;;;1.60;;
66567;SDS011;53422;49.296;6.900;2024-03-23T09:35:57;5.03;;;1.30;;
66567;SDS011;53422;49.296;6.900;2024-03-23T09:38:27;8.48;;;1.77;;
66567;SDS011;53422;49.296;6.900;2024-03-23T09:40:53;3.63;;;1.40;;
66567;SDS011;53422;49.296;6.900;2024-03-23T09:43:19;3.90;;;1.15;;
66567;SDS011;53422;49.296;6.900;2024-03-23T09:45:45;5.82;;;1.50;;
66567;SDS011;53422;49.296;6.900;2024-03-23T09:48:11;2.50;;;1.33;;
66567;SDS011;53422;49.296;6.900;2024-03-23T09:50:47;3.03;;;1.35;;
66567;SDS011;53422;49.296;6.900;2024-03-23T09:53:13;5.30;;;1.98;;
66567;SDS011;53422;49.296;6.900;2024-03-23T09:55:40;3.67;;;1.30;;
66567;SDS011;53422;49.296;6.900;2024-03-23T09:58:07;3.50;;;0.95;;
66567;SDS011;53422;49.296;6.900;2024-03-23T10:00:33;3.22;;;1.35;;
66567;SDS011;53422;49.296;6.900;2024-03-23T10:02:59;5.80;;;2.00;;
66567;SDS011;53422;49.296;6.900;2024-03-23T10:05:29;3.10;;;1.38;;
66567;SDS011;53422;49.296;6.900;2024-03-23T10:10:43;6.28;;;1.83;;
66567;SDS011;53422;49.296;6.900;2024-03-23T10:13:10;4.38;;;1.20;;
66567;SDS011;53422;49.296;6.900;2024-03-23T10:15:38;5.95;;;1.20;;
66567;SDS011;53422;49.296;6.900;2024-03-23T10:23:37;5.20;;;0.93;;
66567;SDS011;53422;49.296;6.900;2024-03-23T10:26:17;2.88;;;0.60;;
66567;SDS011;53422;49.296;6.900;2024-03-23T10:29:05;2.10;;;0.80;;
66567;SDS011;53422;49.296;6.900;2024-03-23T10:31:35;2.00;;;0.80;;
66567;SDS011;53422;49.296;6.900;2024-03-23T10:34:02;2.78;;;0.60;;
66567;SDS011;53422;49.296;6.900;2024-03-23T10:36:28;1.63;;;0.75;;
66567;SDS011;53422;49.296;6.900;2024-03-23T10:38:55;2.03;;;0.80;;
66567;SDS011;53422;49.296;6.900;2024-03-23T10:41:26;3.30;;;1.10;;
66567;SDS011;53422;49.296;6.900;2024-03-23T10:43:56;3.17;;;1.00;;
66567;SDS011;53422;49.296;6.900;2024-03-23T10:46:23;4.22;;;1.20;;
66567;SDS011;53422;49.296;6.900;2024-03-23T10:48:49;3.78;;;1.30;;
66567;SDS011;53422;49.296;6.900;2024-03-23T10:51:15;3.15;;;1.17;;
66567;SDS011;53422;49.296;6.900;2024-03-23T10:53:40;4.68;;;1.13;;
66567;SDS011;53422;49.296;6.900;2024-03-23T10:56:07;4.43;;;1.83;;
66567;SDS011;53422;49.296;6.900;2024-03-23T11:01:03;4.68;;;1.35;;
66567;SDS011;53422;49.296;6.900;2024-03-23T11:03:29;4.07;;;0.98;;
66567;SDS011;53422;49.296;6.900;2024-03-23T11:05:59;5.63;;;1.10;;
66567;SDS011;53422;49.296;6.900;2024-03-23T11:08:32;3.17;;;0.65;;
66567;SDS011;53422;49.296;6.900;2024-03-23T11:11:14;4.10;;;1.10;;
66567;SDS011;53422;49.296;6.900;2024-03-23T11:13:44;2.47;;;0.95;;
66567;SDS011;53422;49.296;6.900;2024-03-23T11:16:31;1.58;;;0.63;;
66567;SDS011;53422;49.296;6.900;2024-03-23T11:22:04;2.15;;;0.40;;
66567;SDS011;53422;49.296;6.900;2024-03-23T11:24:31;0.77;;;0.40;;
66567;SDS011;53422;49.296;6.900;2024-03-23T11:26:57;2.60;;;0.68;;
66567;SDS011;53422;49.296;6.900;2024-03-23T11:29:28;0.73;;;0.32;;
66567;SDS011;53422;49.296;6.900;2024-03-23T11:31:55;1.23;;;0.70;;
66567;SDS011;53422;49.296;6.900;2024-03-23T11:34:21;1.55;;;0.90;;
66567;SDS011;53422;49.296;6.900;2024-03-23T11:36:47;1.25;;;0.45;;
66567;SDS011;53422;49.296;6.900;2024-03-23T11:39:19;1.50;;;0.68;;
66567;SDS011;53422;49.296;6.900;2024-03-23T11:41:52;1.50;;;0.70;;
66567;SDS011;53422;49.296;6.900;2024-03-23T11:44:19;1.92;;;0.52;;
66567;SDS011;53422;49.296;6.900;2024-03-23T11:46:50;3.58;;;0.60;;
66567;SDS011;53422;49.296;6.900;2024-03-23T11:51:49;0.95;;;0.50;;
66567;SDS011;53422;49.296;6.900;2024-03-23T11:54:15;1.45;;;0.90;;
66567;SDS011;53422;49.296;6.900;2024-03-23T11:57:04;1.13;;;0.60;;
66567;SDS011;53422;49.296;6.900;2024-03-23T11:59:36;2.75;;;0.32;;
66567;SDS011;53422;49.296;6.900;2024-03-23T12:04:36;1.73;;;1.10;;
66567;SDS011;53422;49.296;6.900;2024-03-23T12:07:18;1.27;;;1.00;;
66567;SDS011;53422;49.296;6.900;2024-03-23T12:09:45;2.95;;;0.60;;
66567;SDS011;53422;49.296;6.900;2024-03-23T12:12:16;2.97;;;0.70;;
66567;SDS011;53422;49.296;6.900;2024-03-23T12:14:42;0.90;;;0.50;;
66567;SDS011;53422;49.296;6.900;2024-03-23T12:17:13;1.50;;;0.65;;
66567;SDS011;53422;49.296;6.900;2024-03-23T12:19:40;2.55;;;0.65;;
66567;SDS011;53422;49.296;6.900;2024-03-23T12:22:07;3.35;;;0.80;;
66567;SDS011;53422;49.296;6.900;2024-03-23T12:24:33;0.93;;;0.50;;
66567;SDS011;53422;49.296;6.900;2024-03-23T12:27:03;0.65;;;0.45;;
66567;SDS011;53422;49.296;6.900;2024-03-23T12:29:30;1.25;;;0.63;;
66567;SDS011;53422;49.296;6.900;2024-03-23T12:31:58;1.80;;;0.80;;
66567;SDS011;53422;49.296;6.900;2024-03-23T12:34:26;0.85;;;0.50;;
66567;SDS011;53422;49.296;6.900;2024-03-23T12:36:52;1.48;;;0.90;;
66567;SDS011;53422;49.296;6.900;2024-03-23T12:39:18;3.08;;;0.85;;
66567;SDS011;53422;49.296;6.900;2024-03-23T12:41:45;2.08;;;1.08;;
66567;SDS011;53422;49.296;6.900;2024-03-23T12:44:11;5.78;;;1.00;;
66567;SDS011;53422;49.296;6.900;2024-03-23T12:46:37;4.93;;;1.20;;
66567;SDS011;53422;49.296;6.900;2024-03-23T12:49:03;2.20;;;0.70;;
66567;SDS011;53422;49.296;6.900;2024-03-23T12:51:29;1.40;;;0.82;;
66567;SDS011;53422;49.296;6.900;2024-03-23T12:53:54;1.10;;;0.60;;
66567;SDS011;53422;49.296;6.900;2024-03-23T12:56:20;4.25;;;0.90;;
66567;SDS011;53422;49.296;6.900;2024-03-23T12:58:46;1.25;;;0.60;;
66567;SDS011;53422;49.296;6.900;2024-03-23T13:01:16;1.27;;;0.60;;
66567;SDS011;53422;49.296;6.900;2024-03-23T13:03:42;1.60;;;0.40;;
66567;SDS011;53422;49.296;6.900;2024-03-23T13:06:09;1.85;;;0.98;;
66567;SDS011;53422;49.296;6.900;2024-03-23T13:08:35;1.50;;;0.57;;
66567;SDS011;53422;49.296;6.900;2024-03-23T13:11:01;1.23;;;0.50;;
66567;SDS011;53422;49.296;6.900;2024-03-23T13:13:26;0.73;;;0.32;;
66567;SDS011;53422;49.296;6.900;2024-03-23T13:15:52;0.90;;;0.47;;
66567;SDS011;53422;49.296;6.900;2024-03-23T13:18:18;1.17;;;0.77;;
66567;SDS011;53422;49.296;6.900;2024-03-23T13:20:43;1.00;;;0.30;;
66567;SDS011;53422;49.296;6.900;2024-03-23T13:23:09;2.42;;;0.60;;
66567;SDS011;53422;49.296;6.900;2024-03-23T13:25:35;1.00;;;0.40;;
66567;SDS011;53422;49.296;6.900;2024-03-23T13:28:02;1.23;;;0.60;;
66567;SDS011;53422;49.296;6.900;2024-03-23T13:30:28;3.95;;;0.50;;
66567;SDS011;53422;49.296;6.900;2024-03-23T13:32:54;1.23;;;0.60;;
66567;SDS011;53422;49.296;6.900;2024-03-23T13:35:20;1.00;;;0.40;;
66567;SDS011;53422;49.296;6.900;2024-03-23T13:37:46;3.13;;;0.88;;
66567;SDS011;53422;49.296;6.900;2024-03-23T13:40:12;0.60;;;0.40;;
66567;SDS011;53422;49.296;6.900;2024-03-23T13:42:37;1.33;;;0.77;;
66567;SDS011;53422;49.296;6.900;2024-03-23T13:45:03;1.27;;;0.50;;
66567;SDS011;53422;49.296;6.900;2024-03-23T13:47:29;3.03;;;0.63;;
66567;SDS011;53422;49.296;6.900;2024-03-23T13:49:55;2.17;;;0.63;;
66567;SDS011;53422;49.296;6.900;2024-03-23T13:52:21;4.45;;;0.90;;
66567;SDS011;53422;49.296;6.900;2024-03-23T13:54:50;2.13;;;1.52;;
66567;SDS011;53422;49.296;6.900;2024-03-23T13:57:17;2.45;;;0.70;;
66567;SDS011;53422;49.296;6.900;2024-03-23T13:59:45;0.77;;;0.40;;
66567;SDS011;53422;49.296;6.900;2024-03-23T14:02:12;1.92;;;0.93;;
66567;SDS011;53422;49.296;6.900;2024-03-23T14:04:39;2.70;;;1.05;;
66567;SDS011;53422;49.296;6.900;2024-03-23T14:07:05;1.10;;;0.50;;
66567;SDS011;53422;49.296;6.900;2024-03-23T14:09:32;3.13;;;0.60;;
66567;SDS011;53422;49.296;6.900;2024-03-23T14:11:58;2.20;;;0.77;;
66567;SDS011;53422;49.296;6.900;2024-03-23T14:14:25;1.52;;;0.57;;
66567;SDS011;53422;49.296;6.900;2024-03-23T14:16:50;1.73;;;0.40;;
66567;SDS011;53422;49.296;6.900;2024-03-23T14:19:16;1.85;;;0.40;;
66567;SDS011;53422;49.296;6.900;2024-03-23T14:21:42;1.38;;;1.13;;
66567;SDS011;53422;49.296;6.900;2024-03-23T14:24:07;0.40;;;0.30;;
66567;SDS011;53422;49.296;6.900;2024-03-23T14:26:34;1.23;;;0.52;;
66567;SDS011;53422;49.296;6.900;2024-03-23T14:29:00;1.08;;;0.40;;
66567;SDS011;53422;49.296;6.900;2024-03-23T14:31:26;0.90;;;0.50;;
66567;SDS011;53422;49.296;6.900;2024-03-23T14:33:51;0.93;;;0.50;;
66567;SDS011;53422;49.296;6.900;2024-03-23T14:36:17;0.90;;;0.40;;
66567;SDS011;53422;49.296;6.900;2024-03-23T14:38:52;0.98;;;0.40;;
66567;SDS011;53422;49.296;6.900;2024-03-23T14:41:18;1.73;;;0.50;;
66567;SDS011;53422;49.296;6.900;2024-03-23T14:43:43;1.10;;;0.52;;
66567;SDS011;53422;49.296;6.900;2024-03-23T14:46:13;3.85;;;0.63;;
66567;SDS011;53422;49.296;6.900;2024-03-23T14:48:40;1.20;;;0.55;;
66567;SDS011;53422;49.296;6.900;2024-03-23T14:51:08;2.55;;;0.70;;
66567;SDS011;53422;49.296;6.900;2024-03-23T14:53:39;1.17;;;0.57;;
66567;SDS011;53422;49.296;6.900;2024-03-23T14:56:09;1.55;;;0.60;;
66567;SDS011;53422;49.296;6.900;2024-03-23T14:58:38;0.60;;;0.30;;
66567;SDS011;53422;49.296;6.900;2024-03-23T15:01:04;1.50;;;0.77;;
66567;SDS011;53422;49.296;6.900;2024-03-23T15:03:33;1.52;;;0.75;;
66567;SDS011;53422;49.296;6.900;2024-03-23T15:05:58;0.60;;;0.30;;
66567;SDS011;53422;49.296;6.900;2024-03-23T15:08:25;1.55;;;0.50;;
66567;SDS011;53422;49.296;6.900;2024-03-23T15:10:51;4.13;;;0.80;;
66567;SDS011;53422;49.296;6.900;2024-03-23T15:13:16;2.72;;;0.93;;
66567;SDS011;53422;49.296;6.900;2024-03-23T15:15:43;2.33;;;0.68;;
66567;SDS011;53422;49.296;6.900;2024-03-23T15:18:13;1.45;;;1.10;;
66567;SDS011;53422;49.296;6.900;2024-03-23T15:20:54;1.15;;;0.40;;
66567;SDS011;53422;49.296;6.900;2024-03-23T15:23:20;1.90;;;0.63;;
66567;SDS011;53422;49.296;6.900;2024-03-23T15:25:53;3.30;;;0.47;;
66567;SDS011;53422;49.296;6.900;2024-03-23T15:28:19;0.55;;;0.40;;
66567;SDS011;53422;49.296;6.900;2024-03-23T15:30:45;0.73;;;0.30;;
66567;SDS011;53422;49.296;6.900;2024-03-23T15:33:10;3.72;;;0.50;;
66567;SDS011;53422;49.296;6.900;2024-03-23T15:35:36;1.65;;;0.40;;
66567;SDS011;53422;49.296;6.900;2024-03-23T15:38:02;0.82;;;0.47;;
66567;SDS011;53422;49.296;6.900;2024-03-23T15:40:28;0.60;;;0.40;;
66567;SDS011;53422;49.296;6.900;2024-03-23T15:42:54;2.28;;;0.60;;
66567;SDS011;53422;49.296;6.900;2024-03-23T15:45:20;0.73;;;0.43;;
66567;SDS011;53422;49.296;6.900;2024-03-23T15:47:45;1.08;;;0.70;;
66567;SDS011;53422;49.296;6.900;2024-03-23T15:50:11;1.30;;;0.60;;
66567;SDS011;53422;49.296;6.900;2024-03-23T15:52:37;1.10;;;0.50;;
66567;SDS011;53422;49.296;6.900;2024-03-23T15:55:03;2.08;;;0.43;;
66567;SDS011;53422;49.296;6.900;2024-03-23T15:57:33;1.90;;;0.70;;